sensor_id;sensor_type;location;lat;lon;timestamp;pressure;altitude;pressure_sealevel;temperature
12918;BMP180;6526;54.312;13.092;2023-04-21T00:00:49;102789.00;;;12.50
12918;BMP180;6526;54.312;13.092;2023-04-21T00:03:15;102787.00;;;12.40
12918;BMP180;6526;54.312;13.092;2023-04-21T00:05:42;102797.00;;;12.40
12918;BMP180;6526;54.312;13.092;2023-04-21T00:08:08;102801.00;;;12.30
12918;BMP180;6526;54.312;13.092;2023-04-21T00:10:34;102791.00;;;12.20
12918;BMP180;6526;54.312;13.092;2023-04-21T00:13:01;102793.00;;;12.30
12918;BMP180;6526;54.312;13.092;2023-04-21T00:15:27;102795.00;;;12.20
12918;BMP180;6526;54.312;13.092;2023-04-21T00:17:53;102792.00;;;12.20
12918;BMP180;6526;54.312;13.092;2023-04-21T00:20:19;102791.00;;;12.10
12918;BMP180;6526;54.312;13.092;2023-04-21T00:22:45;102805.00;;;12.10
12918;BMP180;6526;54.312;13.092;2023-04-21T00:25:11;102785.00;;;12.10
12918;BMP180;6526;54.312;13.092;2023-04-21T00:27:37;102786.00;;;12.10
12918;BMP180;6526;54.312;13.092;2023-04-21T00:30:03;102783.00;;;12.10
12918;BMP180;6526;54.312;13.092;2023-04-21T00:32:29;102784.00;;;12.10
12918;BMP180;6526;54.312;13.092;2023-04-21T00:34:55;102775.00;;;12.00
12918;BMP180;6526;54.312;13.092;2023-04-21T00:37:21;102779.00;;;12.00
12918;BMP180;6526;54.312;13.092;2023-04-21T00:39:47;102781.00;;;12.10
12918;BMP180;6526;54.312;13.092;2023-04-21T00:42:15;102776.00;;;12.00
12918;BMP180;6526;54.312;13.092;2023-04-21T00:44:42;102781.00;;;12.00
12918;BMP180;6526;54.312;13.092;2023-04-21T00:47:08;102785.00;;;12.00
12918;BMP180;6526;54.312;13.092;2023-04-21T00:49:34;102791.00;;;11.90
12918;BMP180;6526;54.312;13.092;2023-04-21T00:52:00;102780.00;;;11.80
12918;BMP180;6526;54.312;13.092;2023-04-21T00:54:27;102779.00;;;11.80
12918;BMP180;6526;54.312;13.092;2023-04-21T00:56:54;102778.00;;;11.80
12918;BMP180;6526;54.312;13.092;2023-04-21T00:59:21;102771.00;;;11.70
12918;BMP180;6526;54.312;13.092;2023-04-21T01:01:47;102761.00;;;11.80
12918;BMP180;6526;54.312;13.092;2023-04-21T01:04:13;102775.00;;;11.80
12918;BMP180;6526;54.312;13.092;2023-04-21T01:06:40;102768.00;;;11.70
12918;BMP180;6526;54.312;13.092;2023-04-21T01:09:06;102774.00;;;11.70
12918;BMP180;6526;54.312;13.092;2023-04-21T01:11:32;102771.00;;;11.70
12918;BMP180;6526;54.312;13.092;2023-04-21T01:13:59;102779.00;;;11.70
12918;BMP180;6526;54.312;13.092;2023-04-21T01:16:25;102785.00;;;11.70
12918;BMP180;6526;54.312;13.092;2023-04-21T01:18:51;102770.00;;;11.60
12918;BMP180;6526;54.312;13.092;2023-04-21T01:21:21;102770.00;;;11.50
12918;BMP180;6526;54.312;13.092;2023-04-21T01:23:47;102764.00;;;11.50
12918;BMP180;6526;54.312;13.092;2023-04-21T01:26:15;102721.00;;;11.50
12918;BMP180;6526;54.312;13.092;2023-04-21T01:28:42;102772.00;;;11.50
12918;BMP180;6526;54.312;13.092;2023-04-21T01:31:08;102760.00;;;11.50
12918;BMP180;6526;54.312;13.092;2023-04-21T01:33:34;102763.00;;;11.40
12918;BMP180;6526;54.312;13.092;2023-04-21T01:36:00;102758.00;;;11.40
12918;BMP180;6526;54.312;13.092;2023-04-21T01:38:26;102755.00;;;11.40
12918;BMP180;6526;54.312;13.092;2023-04-21T01:40:53;102760.00;;;11.30
12918;BMP180;6526;54.312;13.092;2023-04-21T01:43:22;102761.00;;;11.30
12918;BMP180;6526;54.312;13.092;2023-04-21T01:45:49;102765.00;;;11.30
12918;BMP180;6526;54.312;13.092;2023-04-21T01:48:15;102750.00;;;11.30
12918;BMP180;6526;54.312;13.092;2023-04-21T01:50:41;102757.00;;;11.30
12918;BMP180;6526;54.312;13.092;2023-04-21T01:53:07;102751.00;;;11.30
12918;BMP180;6526;54.312;13.092;2023-04-21T01:55:33;102756.00;;;11.30
12918;BMP180;6526;54.312;13.092;2023-04-21T01:57:59;102760.00;;;11.30
12918;BMP180;6526;54.312;13.092;2023-04-21T02:00:26;102741.00;;;11.20
12918;BMP180;6526;54.312;13.092;2023-04-21T02:02:52;102745.00;;;11.20
12918;BMP180;6526;54.312;13.092;2023-04-21T02:05:18;102746.00;;;11.20
12918;BMP180;6526;54.312;13.092;2023-04-21T02:07:44;102747.00;;;11.10
12918;BMP180;6526;54.312;13.092;2023-04-21T02:10:11;102746.00;;;11.10
12918;BMP180;6526;54.312;13.092;2023-04-21T02:12:37;102737.00;;;11.10
12918;BMP180;6526;54.312;13.092;2023-04-21T02:15:04;102738.00;;;11.00
12918;BMP180;6526;54.312;13.092;2023-04-21T02:17:30;102746.00;;;10.90
12918;BMP180;6526;54.312;13.092;2023-04-21T02:19:57;102740.00;;;10.90
12918;BMP180;6526;54.312;13.092;2023-04-21T02:22:23;102744.00;;;10.90
12918;BMP180;6526;54.312;13.092;2023-04-21T02:24:49;102734.00;;;10.90
12918;BMP180;6526;54.312;13.092;2023-04-21T02:27:15;102740.00;;;10.90
12918;BMP180;6526;54.312;13.092;2023-04-21T02:29:41;102743.00;;;10.90
12918;BMP180;6526;54.312;13.092;2023-04-21T02:32:08;102732.00;;;10.90
12918;BMP180;6526;54.312;13.092;2023-04-21T02:34:34;102737.00;;;10.90
12918;BMP180;6526;54.312;13.092;2023-04-21T02:37:00;102739.00;;;10.80
12918;BMP180;6526;54.312;13.092;2023-04-21T02:39:26;102726.00;;;10.80
12918;BMP180;6526;54.312;13.092;2023-04-21T02:41:52;102733.00;;;10.80
12918;BMP180;6526;54.312;13.092;2023-04-21T02:44:18;102728.00;;;10.80
12918;BMP180;6526;54.312;13.092;2023-04-21T02:46:44;102739.00;;;10.80
12918;BMP180;6526;54.312;13.092;2023-04-21T02:49:10;102737.00;;;10.80
12918;BMP180;6526;54.312;13.092;2023-04-21T02:51:36;102741.00;;;10.70
12918;BMP180;6526;54.312;13.092;2023-04-21T02:54:03;102732.00;;;10.70
12918;BMP180;6526;54.312;13.092;2023-04-21T02:56:29;102742.00;;;10.70
12918;BMP180;6526;54.312;13.092;2023-04-21T02:58:56;102743.00;;;10.70
12918;BMP180;6526;54.312;13.092;2023-04-21T03:01:22;102733.00;;;10.70
12918;BMP180;6526;54.312;13.092;2023-04-21T03:03:48;102732.00;;;10.80
12918;BMP180;6526;54.312;13.092;2023-04-21T03:06:14;102727.00;;;10.70
12918;BMP180;6526;54.312;13.092;2023-04-21T03:08:40;102735.00;;;10.80
12918;BMP180;6526;54.312;13.092;2023-04-21T03:11:07;102729.00;;;10.80
12918;BMP180;6526;54.312;13.092;2023-04-21T03:13:33;102723.00;;;10.70
12918;BMP180;6526;54.312;13.092;2023-04-21T03:15:59;102720.00;;;10.70
12918;BMP180;6526;54.312;13.092;2023-04-21T03:18:25;102712.00;;;10.70
12918;BMP180;6526;54.312;13.092;2023-04-21T03:20:51;102708.00;;;10.60
12918;BMP180;6526;54.312;13.092;2023-04-21T03:23:17;102711.00;;;10.50
12918;BMP180;6526;54.312;13.092;2023-04-21T03:25:43;102708.00;;;10.50
12918;BMP180;6526;54.312;13.092;2023-04-21T03:28:09;102715.00;;;10.50
12918;BMP180;6526;54.312;13.092;2023-04-21T03:30:35;102728.00;;;10.50
12918;BMP180;6526;54.312;13.092;2023-04-21T03:33:01;102715.00;;;10.40
12918;BMP180;6526;54.312;13.092;2023-04-21T03:35:28;102713.00;;;10.40
12918;BMP180;6526;54.312;13.092;2023-04-21T03:37:55;102721.00;;;10.40
12918;BMP180;6526;54.312;13.092;2023-04-21T03:40:21;102717.00;;;10.40
12918;BMP180;6526;54.312;13.092;2023-04-21T03:42:47;102713.00;;;10.40
12918;BMP180;6526;54.312;13.092;2023-04-21T03:45:13;102711.00;;;10.40
12918;BMP180;6526;54.312;13.092;2023-04-21T03:47:40;102715.00;;;10.30
12918;BMP180;6526;54.312;13.092;2023-04-21T03:50:06;102705.00;;;10.30
12918;BMP180;6526;54.312;13.092;2023-04-21T03:52:32;102709.00;;;10.30
12918;BMP180;6526;54.312;13.092;2023-04-21T03:54:58;102709.00;;;10.20
12918;BMP180;6526;54.312;13.092;2023-04-21T03:57:25;102718.00;;;10.20
12918;BMP180;6526;54.312;13.092;2023-04-21T03:59:51;102710.00;;;10.20
12918;BMP180;6526;54.312;13.092;2023-04-21T04:02:17;102703.00;;;10.20
12918;BMP180;6526;54.312;13.092;2023-04-21T04:04:43;102715.00;;;10.20
12918;BMP180;6526;54.312;13.092;2023-04-21T04:07:09;102708.00;;;10.10
12918;BMP180;6526;54.312;13.092;2023-04-21T04:09:35;102707.00;;;10.10
12918;BMP180;6526;54.312;13.092;2023-04-21T04:12:01;102705.00;;;10.10
12918;BMP180;6526;54.312;13.092;2023-04-21T04:14:28;102709.00;;;10.10
12918;BMP180;6526;54.312;13.092;2023-04-21T04:16:54;102705.00;;;10.10
12918;BMP180;6526;54.312;13.092;2023-04-21T04:19:20;102696.00;;;10.10
12918;BMP180;6526;54.312;13.092;2023-04-21T04:21:46;102697.00;;;10.10
12918;BMP180;6526;54.312;13.092;2023-04-21T04:24:12;102690.00;;;10.20
12918;BMP180;6526;54.312;13.092;2023-04-21T04:26:39;102695.00;;;10.20
12918;BMP180;6526;54.312;13.092;2023-04-21T04:29:05;102694.00;;;10.10
12918;BMP180;6526;54.312;13.092;2023-04-21T04:31:35;102692.00;;;10.10
12918;BMP180;6526;54.312;13.092;2023-04-21T04:34:01;102697.00;;;10.20
12918;BMP180;6526;54.312;13.092;2023-04-21T04:36:27;102689.00;;;10.20
12918;BMP180;6526;54.312;13.092;2023-04-21T04:38:53;102691.00;;;10.20
12918;BMP180;6526;54.312;13.092;2023-04-21T04:41:19;102689.00;;;10.20
12918;BMP180;6526;54.312;13.092;2023-04-21T04:43:45;102695.00;;;10.30
12918;BMP180;6526;54.312;13.092;2023-04-21T04:46:12;102699.00;;;10.40
12918;BMP180;6526;54.312;13.092;2023-04-21T04:48:38;102691.00;;;10.30
12918;BMP180;6526;54.312;13.092;2023-04-21T04:51:05;102697.00;;;10.40
12918;BMP180;6526;54.312;13.092;2023-04-21T04:53:32;102698.00;;;10.50
12918;BMP180;6526;54.312;13.092;2023-04-21T04:55:58;102684.00;;;10.50
12918;BMP180;6526;54.312;13.092;2023-04-21T04:58:24;102693.00;;;10.60
12918;BMP180;6526;54.312;13.092;2023-04-21T05:00:50;102691.00;;;10.60
12918;BMP180;6526;54.312;13.092;2023-04-21T05:03:17;102691.00;;;10.70
12918;BMP180;6526;54.312;13.092;2023-04-21T05:05:43;102691.00;;;10.70
12918;BMP180;6526;54.312;13.092;2023-04-21T05:08:10;102689.00;;;10.70
12918;BMP180;6526;54.312;13.092;2023-04-21T05:10:36;102693.00;;;10.70
12918;BMP180;6526;54.312;13.092;2023-04-21T05:13:02;102696.00;;;10.80
12918;BMP180;6526;54.312;13.092;2023-04-21T05:15:28;102692.00;;;10.80
12918;BMP180;6526;54.312;13.092;2023-04-21T05:17:54;102696.00;;;10.80
12918;BMP180;6526;54.312;13.092;2023-04-21T05:20:20;102697.00;;;10.90
12918;BMP180;6526;54.312;13.092;2023-04-21T05:22:47;102699.00;;;10.90
12918;BMP180;6526;54.312;13.092;2023-04-21T05:25:13;102702.00;;;11.00
12918;BMP180;6526;54.312;13.092;2023-04-21T05:27:41;102698.00;;;11.00
12918;BMP180;6526;54.312;13.092;2023-04-21T05:30:07;102697.00;;;11.10
12918;BMP180;6526;54.312;13.092;2023-04-21T05:32:34;102703.00;;;11.30
12918;BMP180;6526;54.312;13.092;2023-04-21T05:35:00;102700.00;;;11.30
12918;BMP180;6526;54.312;13.092;2023-04-21T05:37:26;102699.00;;;11.40
12918;BMP180;6526;54.312;13.092;2023-04-21T05:39:52;102704.00;;;11.50
12918;BMP180;6526;54.312;13.092;2023-04-21T05:42:18;102691.00;;;11.50
12918;BMP180;6526;54.312;13.092;2023-04-21T05:44:44;102699.00;;;11.60
12918;BMP180;6526;54.312;13.092;2023-04-21T05:47:10;102696.00;;;11.70
12918;BMP180;6526;54.312;13.092;2023-04-21T05:49:36;102696.00;;;11.70
12918;BMP180;6526;54.312;13.092;2023-04-21T05:52:02;102694.00;;;11.90
12918;BMP180;6526;54.312;13.092;2023-04-21T05:54:28;102703.00;;;11.90
12918;BMP180;6526;54.312;13.092;2023-04-21T05:56:54;102692.00;;;11.90
12918;BMP180;6526;54.312;13.092;2023-04-21T05:59:20;102694.00;;;12.00
12918;BMP180;6526;54.312;13.092;2023-04-21T06:01:46;102699.00;;;12.10
12918;BMP180;6526;54.312;13.092;2023-04-21T06:04:12;102686.00;;;12.40
12918;BMP180;6526;54.312;13.092;2023-04-21T06:06:38;102694.00;;;12.60
12918;BMP180;6526;54.312;13.092;2023-04-21T06:09:04;102695.00;;;12.70
12918;BMP180;6526;54.312;13.092;2023-04-21T06:11:32;102688.00;;;12.90
12918;BMP180;6526;54.312;13.092;2023-04-21T06:13:58;102689.00;;;13.00
12918;BMP180;6526;54.312;13.092;2023-04-21T06:16:25;102677.00;;;13.00
12918;BMP180;6526;54.312;13.092;2023-04-21T06:18:52;102701.00;;;13.20
12918;BMP180;6526;54.312;13.092;2023-04-21T06:21:18;102692.00;;;13.30
12918;BMP180;6526;54.312;13.092;2023-04-21T06:23:44;102685.00;;;13.40
12918;BMP180;6526;54.312;13.092;2023-04-21T06:26:10;102697.00;;;13.50
12918;BMP180;6526;54.312;13.092;2023-04-21T06:28:37;102689.00;;;13.60
12918;BMP180;6526;54.312;13.092;2023-04-21T06:31:04;102689.00;;;13.80
12918;BMP180;6526;54.312;13.092;2023-04-21T06:33:30;102680.00;;;13.80
12918;BMP180;6526;54.312;13.092;2023-04-21T06:35:56;102697.00;;;13.80
12918;BMP180;6526;54.312;13.092;2023-04-21T06:38:22;102693.00;;;13.90
12918;BMP180;6526;54.312;13.092;2023-04-21T06:40:49;102696.00;;;14.00
12918;BMP180;6526;54.312;13.092;2023-04-21T06:43:15;102688.00;;;14.00
12918;BMP180;6526;54.312;13.092;2023-04-21T06:45:41;102685.00;;;14.10
12918;BMP180;6526;54.312;13.092;2023-04-21T06:48:07;102642.00;;;14.10
12918;BMP180;6526;54.312;13.092;2023-04-21T06:50:33;102684.00;;;14.10
12918;BMP180;6526;54.312;13.092;2023-04-21T06:52:59;102693.00;;;14.00
12918;BMP180;6526;54.312;13.092;2023-04-21T06:55:25;102643.00;;;14.00
12918;BMP180;6526;54.312;13.092;2023-04-21T06:57:51;102682.00;;;14.00
12918;BMP180;6526;54.312;13.092;2023-04-21T07:00:18;102669.00;;;14.30
12918;BMP180;6526;54.312;13.092;2023-04-21T07:02:44;102676.00;;;14.40
12918;BMP180;6526;54.312;13.092;2023-04-21T07:05:10;102675.00;;;14.60
12918;BMP180;6526;54.312;13.092;2023-04-21T07:07:36;102675.00;;;14.70
12918;BMP180;6526;54.312;13.092;2023-04-21T07:10:02;102668.00;;;14.70
12918;BMP180;6526;54.312;13.092;2023-04-21T07:12:28;102665.00;;;14.70
12918;BMP180;6526;54.312;13.092;2023-04-21T07:14:54;102669.00;;;14.70
12918;BMP180;6526;54.312;13.092;2023-04-21T07:17:20;102666.00;;;14.70
12918;BMP180;6526;54.312;13.092;2023-04-21T07:19:46;102665.00;;;14.80
12918;BMP180;6526;54.312;13.092;2023-04-21T07:22:12;102667.00;;;15.00
12918;BMP180;6526;54.312;13.092;2023-04-21T07:24:38;102667.00;;;15.30
12918;BMP180;6526;54.312;13.092;2023-04-21T07:27:04;102661.00;;;15.40
12918;BMP180;6526;54.312;13.092;2023-04-21T07:29:30;102663.00;;;15.50
12918;BMP180;6526;54.312;13.092;2023-04-21T07:31:56;102662.00;;;15.80
12918;BMP180;6526;54.312;13.092;2023-04-21T07:34:23;102667.00;;;16.00
12918;BMP180;6526;54.312;13.092;2023-04-21T07:36:50;102662.00;;;16.00
12918;BMP180;6526;54.312;13.092;2023-04-21T07:39:16;102663.00;;;16.10
12918;BMP180;6526;54.312;13.092;2023-04-21T07:41:42;102672.00;;;16.10
12918;BMP180;6526;54.312;13.092;2023-04-21T07:44:08;102655.00;;;16.30
12918;BMP180;6526;54.312;13.092;2023-04-21T07:46:34;102667.00;;;16.40
12918;BMP180;6526;54.312;13.092;2023-04-21T07:49:00;102655.00;;;16.50
12918;BMP180;6526;54.312;13.092;2023-04-21T07:51:27;102650.00;;;16.70
12918;BMP180;6526;54.312;13.092;2023-04-21T07:53:53;102651.00;;;16.90
12918;BMP180;6526;54.312;13.092;2023-04-21T07:56:19;102647.00;;;17.10
12918;BMP180;6526;54.312;13.092;2023-04-21T07:58:45;102640.00;;;17.20
12918;BMP180;6526;54.312;13.092;2023-04-21T08:01:12;102652.00;;;17.30
12918;BMP180;6526;54.312;13.092;2023-04-21T08:03:38;102638.00;;;17.10
12918;BMP180;6526;54.312;13.092;2023-04-21T08:06:04;102643.00;;;17.20
12918;BMP180;6526;54.312;13.092;2023-04-21T08:08:30;102641.00;;;17.50
12918;BMP180;6526;54.312;13.092;2023-04-21T08:10:56;102648.00;;;17.60
12918;BMP180;6526;54.312;13.092;2023-04-21T08:13:22;102645.00;;;17.70
12918;BMP180;6526;54.312;13.092;2023-04-21T08:15:53;102645.00;;;17.80
12918;BMP180;6526;54.312;13.092;2023-04-21T08:18:19;102652.00;;;17.90
12918;BMP180;6526;54.312;13.092;2023-04-21T08:20:46;102648.00;;;17.90
12918;BMP180;6526;54.312;13.092;2023-04-21T08:23:15;102635.00;;;18.10
12918;BMP180;6526;54.312;13.092;2023-04-21T08:25:41;102646.00;;;18.20
12918;BMP180;6526;54.312;13.092;2023-04-21T08:28:07;102635.00;;;18.40
12918;BMP180;6526;54.312;13.092;2023-04-21T08:30:33;102644.00;;;18.50
12918;BMP180;6526;54.312;13.092;2023-04-21T08:32:59;102640.00;;;18.60
12918;BMP180;6526;54.312;13.092;2023-04-21T08:35:25;102654.00;;;18.60
12918;BMP180;6526;54.312;13.092;2023-04-21T08:37:51;102645.00;;;18.70
12918;BMP180;6526;54.312;13.092;2023-04-21T08:40:18;102633.00;;;18.60
12918;BMP180;6526;54.312;13.092;2023-04-21T08:42:47;102638.00;;;18.40
12918;BMP180;6526;54.312;13.092;2023-04-21T08:45:13;102640.00;;;18.50
12918;BMP180;6526;54.312;13.092;2023-04-21T08:47:40;102638.00;;;18.50
12918;BMP180;6526;54.312;13.092;2023-04-21T08:50:11;102643.00;;;18.60
12918;BMP180;6526;54.312;13.092;2023-04-21T08:52:37;102647.00;;;18.80
12918;BMP180;6526;54.312;13.092;2023-04-21T08:55:05;102642.00;;;18.80
12918;BMP180;6526;54.312;13.092;2023-04-21T08:57:32;102643.00;;;18.80
12918;BMP180;6526;54.312;13.092;2023-04-21T08:59:59;102642.00;;;18.80
12918;BMP180;6526;54.312;13.092;2023-04-21T09:02:25;102632.00;;;19.10
12918;BMP180;6526;54.312;13.092;2023-04-21T09:04:51;102633.00;;;19.20
12918;BMP180;6526;54.312;13.092;2023-04-21T09:07:33;102640.00;;;19.20
12918;BMP180;6526;54.312;13.092;2023-04-21T09:10:00;102634.00;;;19.30
12918;BMP180;6526;54.312;13.092;2023-04-21T09:12:26;102629.00;;;19.40
12918;BMP180;6526;54.312;13.092;2023-04-21T09:14:53;102629.00;;;19.40
12918;BMP180;6526;54.312;13.092;2023-04-21T09:17:26;102639.00;;;19.60
12918;BMP180;6526;54.312;13.092;2023-04-21T09:19:53;102632.00;;;19.60
12918;BMP180;6526;54.312;13.092;2023-04-21T09:22:19;102641.00;;;19.50
12918;BMP180;6526;54.312;13.092;2023-04-21T09:24:47;102634.00;;;19.30
12918;BMP180;6526;54.312;13.092;2023-04-21T09:27:14;102639.00;;;19.20
12918;BMP180;6526;54.312;13.092;2023-04-21T09:29:48;102642.00;;;19.10
12918;BMP180;6526;54.312;13.092;2023-04-21T09:32:18;102638.00;;;19.30
12918;BMP180;6526;54.312;13.092;2023-04-21T09:34:44;102638.00;;;19.60
12918;BMP180;6526;54.312;13.092;2023-04-21T09:37:11;102633.00;;;19.80
12918;BMP180;6526;54.312;13.092;2023-04-21T09:39:38;102643.00;;;19.70
12918;BMP180;6526;54.312;13.092;2023-04-21T09:42:09;102632.00;;;19.60
12918;BMP180;6526;54.312;13.092;2023-04-21T09:44:35;102628.00;;;19.60
12918;BMP180;6526;54.312;13.092;2023-04-21T09:47:03;102631.00;;;19.80
12918;BMP180;6526;54.312;13.092;2023-04-21T09:49:30;102627.00;;;19.90
12918;BMP180;6526;54.312;13.092;2023-04-21T09:52:01;102630.00;;;19.70
12918;BMP180;6526;54.312;13.092;2023-04-21T09:54:32;102620.00;;;19.60
12918;BMP180;6526;54.312;13.092;2023-04-21T09:57:00;102613.00;;;19.80
12918;BMP180;6526;54.312;13.092;2023-04-21T09:59:36;102625.00;;;19.90
12918;BMP180;6526;54.312;13.092;2023-04-21T10:02:07;102618.00;;;19.90
12918;BMP180;6526;54.312;13.092;2023-04-21T10:04:35;102620.00;;;20.10
12918;BMP180;6526;54.312;13.092;2023-04-21T10:07:01;102626.00;;;19.90
12918;BMP180;6526;54.312;13.092;2023-04-21T10:09:37;102618.00;;;19.90
12918;BMP180;6526;54.312;13.092;2023-04-21T10:12:06;102619.00;;;19.90
12918;BMP180;6526;54.312;13.092;2023-04-21T10:14:32;102613.00;;;19.80
12918;BMP180;6526;54.312;13.092;2023-04-21T10:17:09;102611.00;;;19.80
12918;BMP180;6526;54.312;13.092;2023-04-21T10:19:37;102610.00;;;19.80
12918;BMP180;6526;54.312;13.092;2023-04-21T10:22:07;102609.00;;;19.70
12918;BMP180;6526;54.312;13.092;2023-04-21T10:24:41;102606.00;;;19.70
12918;BMP180;6526;54.312;13.092;2023-04-21T10:27:11;102606.00;;;19.60
12918;BMP180;6526;54.312;13.092;2023-04-21T10:29:38;102601.00;;;19.70
12918;BMP180;6526;54.312;13.092;2023-04-21T10:32:04;102600.00;;;19.90
12918;BMP180;6526;54.312;13.092;2023-04-21T10:34:37;102601.00;;;20.00
12918;BMP180;6526;54.312;13.092;2023-04-21T10:39:31;102594.00;;;20.00
12918;BMP180;6526;54.312;13.092;2023-04-21T10:52:45;102582.00;;;20.00
12918;BMP180;6526;54.312;13.092;2023-04-21T10:55:12;102559.00;;;20.10
12918;BMP180;6526;54.312;13.092;2023-04-21T10:57:42;102576.00;;;20.20
12918;BMP180;6526;54.312;13.092;2023-04-21T11:00:10;102571.00;;;20.30
12918;BMP180;6526;54.312;13.092;2023-04-21T11:02:37;102571.00;;;20.30
12918;BMP180;6526;54.312;13.092;2023-04-21T11:05:04;102573.00;;;20.20
12918;BMP180;6526;54.312;13.092;2023-04-21T11:07:31;102580.00;;;20.20
12918;BMP180;6526;54.312;13.092;2023-04-21T11:10:07;102563.00;;;20.20
12918;BMP180;6526;54.312;13.092;2023-04-21T11:12:39;102564.00;;;20.30
12918;BMP180;6526;54.312;13.092;2023-04-21T11:15:08;102564.00;;;20.10
12918;BMP180;6526;54.312;13.092;2023-04-21T11:17:35;102558.00;;;20.10
12918;BMP180;6526;54.312;13.092;2023-04-21T11:20:03;102565.00;;;20.10
12918;BMP180;6526;54.312;13.092;2023-04-21T11:22:29;102559.00;;;20.30
12918;BMP180;6526;54.312;13.092;2023-04-21T11:24:56;102550.00;;;20.40
12918;BMP180;6526;54.312;13.092;2023-04-21T11:27:26;102547.00;;;20.40
12918;BMP180;6526;54.312;13.092;2023-04-21T11:29:53;102552.00;;;20.30
12918;BMP180;6526;54.312;13.092;2023-04-21T11:32:19;102542.00;;;20.30
12918;BMP180;6526;54.312;13.092;2023-04-21T11:34:45;102549.00;;;20.50
12918;BMP180;6526;54.312;13.092;2023-04-21T11:37:21;102541.00;;;20.60
12918;BMP180;6526;54.312;13.092;2023-04-21T11:39:48;102547.00;;;20.80
12918;BMP180;6526;54.312;13.092;2023-04-21T11:42:20;102542.00;;;20.60
12918;BMP180;6526;54.312;13.092;2023-04-21T11:44:47;102544.00;;;20.70
12918;BMP180;6526;54.312;13.092;2023-04-21T11:47:14;102544.00;;;20.70
12918;BMP180;6526;54.312;13.092;2023-04-21T11:52:22;102533.00;;;20.90
12918;BMP180;6526;54.312;13.092;2023-04-21T11:54:54;102530.00;;;20.80
12918;BMP180;6526;54.312;13.092;2023-04-21T11:57:22;102535.00;;;20.80
12918;BMP180;6526;54.312;13.092;2023-04-21T11:59:49;102537.00;;;20.80
12918;BMP180;6526;54.312;13.092;2023-04-21T12:02:26;102538.00;;;20.60
12918;BMP180;6526;54.312;13.092;2023-04-21T12:05:05;102527.00;;;20.50
12918;BMP180;6526;54.312;13.092;2023-04-21T12:07:33;102535.00;;;20.50
12918;BMP180;6526;54.312;13.092;2023-04-21T12:10:00;102534.00;;;20.40
12918;BMP180;6526;54.312;13.092;2023-04-21T12:12:28;102527.00;;;20.20
12918;BMP180;6526;54.312;13.092;2023-04-21T12:14:54;102531.00;;;20.20
12918;BMP180;6526;54.312;13.092;2023-04-21T12:17:20;102529.00;;;20.10
12918;BMP180;6526;54.312;13.092;2023-04-21T12:19:46;102520.00;;;20.10
12918;BMP180;6526;54.312;13.092;2023-04-21T12:22:17;102531.00;;;19.90
12918;BMP180;6526;54.312;13.092;2023-04-21T12:24:44;102520.00;;;19.70
12918;BMP180;6526;54.312;13.092;2023-04-21T12:27:10;102523.00;;;19.80
12918;BMP180;6526;54.312;13.092;2023-04-21T12:29:37;102528.00;;;19.80
12918;BMP180;6526;54.312;13.092;2023-04-21T12:32:06;102515.00;;;19.80
12918;BMP180;6526;54.312;13.092;2023-04-21T12:34:33;102515.00;;;19.90
12918;BMP180;6526;54.312;13.092;2023-04-21T12:36:59;102509.00;;;19.90
12918;BMP180;6526;54.312;13.092;2023-04-21T12:39:25;102523.00;;;19.60
12918;BMP180;6526;54.312;13.092;2023-04-21T12:41:51;102509.00;;;19.30
12918;BMP180;6526;54.312;13.092;2023-04-21T12:44:17;102506.00;;;19.30
12918;BMP180;6526;54.312;13.092;2023-04-21T12:46:43;102508.00;;;19.30
12918;BMP180;6526;54.312;13.092;2023-04-21T12:49:09;102507.00;;;19.10
12918;BMP180;6526;54.312;13.092;2023-04-21T12:51:36;102499.00;;;19.20
12918;BMP180;6526;54.312;13.092;2023-04-21T12:54:02;102506.00;;;19.20
12918;BMP180;6526;54.312;13.092;2023-04-21T12:56:28;102495.00;;;19.40
12918;BMP180;6526;54.312;13.092;2023-04-21T12:58:54;102495.00;;;19.30
12918;BMP180;6526;54.312;13.092;2023-04-21T13:01:21;102474.00;;;19.30
12918;BMP180;6526;54.312;13.092;2023-04-21T13:03:47;102483.00;;;19.40
12918;BMP180;6526;54.312;13.092;2023-04-21T13:06:14;102472.00;;;19.50
12918;BMP180;6526;54.312;13.092;2023-04-21T13:08:40;102485.00;;;19.30
12918;BMP180;6526;54.312;13.092;2023-04-21T13:11:06;102491.00;;;19.20
12918;BMP180;6526;54.312;13.092;2023-04-21T13:13:32;102477.00;;;19.10
12918;BMP180;6526;54.312;13.092;2023-04-21T13:15:58;102473.00;;;18.90
12918;BMP180;6526;54.312;13.092;2023-04-21T13:18:24;102467.00;;;18.80
12918;BMP180;6526;54.312;13.092;2023-04-21T13:20:50;102473.00;;;19.00
12918;BMP180;6526;54.312;13.092;2023-04-21T13:23:16;102468.00;;;19.00
12918;BMP180;6526;54.312;13.092;2023-04-21T13:25:43;102479.00;;;19.00
12918;BMP180;6526;54.312;13.092;2023-04-21T13:28:12;102470.00;;;18.90
12918;BMP180;6526;54.312;13.092;2023-04-21T13:30:39;102461.00;;;18.80
12918;BMP180;6526;54.312;13.092;2023-04-21T13:33:05;102465.00;;;18.80
12918;BMP180;6526;54.312;13.092;2023-04-21T13:35:31;102458.00;;;18.70
12918;BMP180;6526;54.312;13.092;2023-04-21T13:37:57;102453.00;;;18.80
12918;BMP180;6526;54.312;13.092;2023-04-21T13:40:23;102449.00;;;18.90
12918;BMP180;6526;54.312;13.092;2023-04-21T13:42:49;102433.00;;;18.90
12918;BMP180;6526;54.312;13.092;2023-04-21T13:45:16;102445.00;;;18.90
12918;BMP180;6526;54.312;13.092;2023-04-21T13:47:42;102436.00;;;18.90
12918;BMP180;6526;54.312;13.092;2023-04-21T13:50:09;102434.00;;;18.90
12918;BMP180;6526;54.312;13.092;2023-04-21T13:52:35;102432.00;;;18.90
12918;BMP180;6526;54.312;13.092;2023-04-21T13:55:01;102438.00;;;18.90
12918;BMP180;6526;54.312;13.092;2023-04-21T13:57:29;102429.00;;;19.00
12918;BMP180;6526;54.312;13.092;2023-04-21T13:59:56;102431.00;;;19.10
12918;BMP180;6526;54.312;13.092;2023-04-21T14:02:22;102426.00;;;19.10
12918;BMP180;6526;54.312;13.092;2023-04-21T14:04:50;102419.00;;;19.20
12918;BMP180;6526;54.312;13.092;2023-04-21T14:07:16;102407.00;;;19.30
12918;BMP180;6526;54.312;13.092;2023-04-21T14:09:44;102420.00;;;19.30